Time;durP1;ratioP1;P1;durP2;ratioP2;P2;SDS_P1;SDS_P2;PMS_P1;PMS_P2;Temp;Humidity;BMP_temperature;BMP_pressure;BME280_temperature;BME280_humidity;BME280_pressure;Samples;Min_cycle;Max_cycle;Signal;HPM_P1;HPM_P2
2022/08/23 00:00:46;;;;;;;0.57;0.50;;;23.40;57.50;;;;;;6195217;28;20105;-74
2022/08/23 00:03:47;;;;;;;0.40;0.35;;;23.40;57.50;;;;;;6177341;28;20497;-74
2022/08/23 00:06:49;;;;;;;0.73;0.40;;;23.40;57.50;;;;;;6171904;28;20121;-73
2022/08/23 00:09:50;;;;;;;0.70;0.50;;;23.40;57.50;;;;;;6194537;28;20014;-74
2022/08/23 00:12:51;;;;;;;0.32;0.32;;;23.40;57.50;;;;;;6185321;28;20019;-74
2022/08/23 00:15:52;;;;;;;0.55;0.50;;;23.40;57.50;;;;;;6170608;28;20054;-74
2022/08/23 00:18:52;;;;;;;0.70;0.60;;;23.40;57.50;;;;;;6187838;28;20022;-74
2022/08/23 00:21:55;;;;;;;0.68;0.50;;;23.40;57.50;;;;;;6193918;28;20382;-74
2022/08/23 00:24:55;;;;;;;0.40;0.40;;;23.40;57.60;;;;;;6170545;28;20446;-74
2022/08/23 00:27:56;;;;;;;0.30;0.30;;;23.40;57.50;;;;;;6176701;28;20032;-74
2022/08/23 00:30:58;;;;;;;0.70;0.40;;;23.40;57.60;;;;;;6172596;28;20043;-74
2022/08/23 00:33:59;;;;;;;0.40;0.40;;;23.40;57.50;;;;;;6184582;28;20097;-74
2022/08/23 00:37:01;;;;;;;0.40;0.30;;;23.40;57.60;;;;;;6196895;28;20479;-75
2022/08/23 00:40:03;;;;;;;0.63;0.45;;;23.40;57.60;;;;;;6172666;28;20030;-74
2022/08/23 00:50:28;;;;;;;0.60;0.50;;;23.40;57.60;;;;;;6173952;28;20039;-74
2022/08/23 00:53:36;;;;;;;0.82;0.40;;;23.40;57.60;;;;;;6174937;28;20038;-74
2022/08/23 00:56:38;;;;;;;0.63;0.40;;;23.40;57.60;;;;;;6196002;28;20454;-74
2022/08/23 00:59:39;;;;;;;0.52;0.50;;;23.40;57.60;;;;;;6177339;28;20394;-74
2022/08/23 01:02:42;;;;;;;0.40;0.40;;;23.40;57.60;;;;;;6169950;28;20130;-75
2022/08/23 01:05:57;;;;;;;1.02;0.50;;;23.40;57.60;;;;;;6193467;28;20098;-74
2022/08/23 01:09:03;;;;;;;0.65;0.52;;;23.40;57.60;;;;;;6183229;28;20586;-74
2022/08/23 01:12:29;;;;;;;0.40;0.40;;;23.40;57.60;;;;;;6171138;28;20545;-74
2022/08/23 01:15:35;;;;;;;0.70;0.55;;;23.40;57.60;;;;;;6191298;28;20420;-74
2022/08/23 01:18:38;;;;;;;0.50;0.50;;;23.40;57.60;;;;;;6187828;28;20031;-74
2022/08/23 01:21:52;;;;;;;0.98;0.60;;;23.40;57.60;;;;;;6170045;28;20042;-74
2022/08/23 01:24:53;;;;;;;0.35;0.35;;;23.40;57.60;;;;;;6197626;28;20037;-74
2022/08/23 01:27:55;;;;;;;0.30;0.30;;;23.40;57.60;;;;;;6180056;28;20106;-74
2022/08/23 01:30:56;;;;;;;0.40;0.40;;;23.40;57.60;;;;;;6192391;28;20104;-74
2022/08/23 01:34:05;;;;;;;0.50;0.43;;;23.40;57.60;;;;;;6186439;28;20496;-73
2022/08/23 01:37:08;;;;;;;0.50;0.50;;;23.40;57.60;;;;;;6169576;28;20026;-74
2022/08/23 01:40:08;;;;;;;0.57;0.40;;;23.40;57.60;;;;;;6185404;28;20030;-75
2022/08/23 01:43:11;;;;;;;0.50;0.30;;;23.40;57.60;;;;;;6195057;28;20046;-74
2022/08/23 01:46:16;;;;;;;0.50;0.40;;;23.40;57.60;;;;;;6169726;28;20120;-73
2022/08/23 01:49:18;;;;;;;0.30;0.30;;;23.40;57.60;;;;;;6177800;28;20035;-75
2022/08/23 01:52:18;;;;;;;0.50;0.45;;;23.40;57.60;;;;;;6195917;28;20099;-75
2022/08/23 01:55:20;;;;;;;0.63;0.40;;;23.40;57.60;;;;;;6181718;28;20027;-75
2022/08/23 01:58:21;;;;;;;0.70;0.40;;;23.40;57.70;;;;;;6173853;28;20433;-73
2022/08/23 02:01:22;;;;;;;0.45;0.45;;;23.40;57.60;;;;;;6196137;28;20030;-74
2022/08/23 02:04:22;;;;;;;0.60;0.40;;;23.40;57.70;;;;;;6191952;28;20367;-74
2022/08/23 02:07:27;;;;;;;0.90;0.50;;;23.40;57.70;;;;;;6173784;28;20474;-73
2022/08/23 02:10:28;;;;;;;0.40;0.40;;;23.40;57.70;;;;;;6187568;28;20034;-74
2022/08/23 02:13:28;;;;;;;0.68;0.30;;;23.40;57.70;;;;;;6199512;28;20443;-74
2022/08/23 02:16:33;;;;;;;0.30;0.30;;;23.40;57.70;;;;;;6175651;28;20478;-74
2022/08/23 02:19:35;;;;;;;0.70;0.43;;;23.40;57.70;;;;;;6181042;28;20018;-74
2022/08/23 02:22:38;;;;;;;0.57;0.50;;;23.40;57.70;;;;;;6197129;28;20554;-74
2022/08/23 02:25:39;;;;;;;0.73;0.50;;;23.40;57.70;;;;;;6182598;28;20126;-74
2022/08/23 02:28:40;;;;;;;0.30;0.28;;;23.40;57.70;;;;;;6192889;28;20030;-74
2022/08/23 02:31:42;;;;;;;1.10;0.50;;;23.40;57.70;;;;;;6175582;28;20054;-74
2022/08/23 02:34:45;;;;;;;0.50;0.30;;;23.40;57.70;;;;;;6177415;28;20026;-74
2022/08/23 02:37:46;;;;;;;0.40;0.40;;;23.40;57.70;;;;;;6211939;28;20031;-74
2022/08/23 02:40:47;;;;;;;0.40;0.40;;;23.40;57.70;;;;;;6183950;28;20054;-74
2022/08/23 02:43:51;;;;;;;0.35;0.35;;;23.40;57.90;;;;;;6173070;28;20585;-74
2022/08/23 02:46:52;;;;;;;0.38;0.30;;;23.40;57.70;;;;;;6193508;28;20026;-74
2022/08/23 02:49:52;;;;;;;1.00;0.50;;;23.40;57.70;;;;;;6192357;28;20069;-73
2022/08/23 02:52:54;;;;;;;0.30;0.30;;;23.40;57.70;;;;;;6172843;28;20456;-74
2022/08/23 02:55:55;;;;;;;0.57;0.50;;;23.40;57.70;;;;;;6183580;28;20031;-74
2022/08/23 02:58:56;;;;;;;0.30;0.30;;;23.40;57.70;;;;;;6196666;28;20481;-74
2022/08/23 03:01:57;;;;;;;0.40;0.40;;;23.40;57.70;;;;;;6176302;28;20030;-74
2022/08/23 03:04:57;;;;;;;0.70;0.40;;;23.40;57.70;;;;;;6171295;28;20034;-74
2022/08/23 03:07:58;;;;;;;0.43;0.43;;;23.40;57.70;;;;;;6195855;28;20134;-73
2022/08/23 03:10:59;;;;;;;0.30;0.30;;;23.40;57.70;;;;;;6188517;28;20038;-74
2022/08/23 03:14:00;;;;;;;0.85;0.55;;;23.40;57.70;;;;;;6171692;28;20125;-74
2022/08/23 03:17:01;;;;;;;0.50;0.40;;;23.40;57.70;;;;;;6191107;28;20026;-74
2022/08/23 03:20:03;;;;;;;0.30;0.30;;;23.40;57.70;;;;;;6196230;28;20508;-74
2022/08/23 03:23:03;;;;;;;0.65;0.50;;;23.40;57.70;;;;;;6173272;28;20035;-74
2022/08/23 03:26:06;;;;;;;0.30;0.30;;;23.40;57.70;;;;;;6189594;28;20590;-74
2022/08/23 03:29:07;;;;;;;0.43;0.40;;;23.40;57.80;;;;;;6195064;28;20030;-74
2022/08/23 03:32:07;;;;;;;0.60;0.40;;;23.40;57.70;;;;;;6178838;28;20129;-74
2022/08/23 03:35:08;;;;;;;0.50;0.40;;;23.40;57.80;;;;;;6172865;28;20513;-74
2022/08/23 03:38:09;;;;;;;0.40;0.40;;;23.40;57.80;;;;;;6195337;28;20030;-75
2022/08/23 03:41:10;;;;;;;0.50;0.50;;;23.40;57.70;;;;;;6188498;28;20377;-76
2022/08/23 03:44:10;;;;;;;0.40;0.35;;;23.40;57.80;;;;;;6172866;28;20031;-74
2022/08/23 03:47:11;;;;;;;0.30;0.30;;;23.40;57.80;;;;;;6187740;28;20604;-75
2022/08/23 03:50:12;;;;;;;0.38;0.30;;;23.40;57.80;;;;;;6196747;28;20033;-73
2022/08/23 03:53:13;;;;;;;0.50;0.30;;;23.40;57.80;;;;;;6174084;28;20054;-73
2022/08/23 03:56:24;;;;;;;0.50;0.50;;;23.40;57.80;;;;;;6178825;28;20638;-75
2022/08/23 03:59:25;;;;;;;0.40;0.40;;;23.40;57.70;;;;;;6196771;28;20026;-74
2022/08/23 04:02:26;;;;;;;0.60;0.40;;;23.40;57.70;;;;;;6211763;28;20465;-76
2022/08/23 04:05:27;;;;;;;0.50;0.45;;;23.40;57.80;;;;;;6196004;28;20080;-74
2022/08/23 04:08:28;;;;;;;0.52;0.40;;;23.40;57.80;;;;;;6173444;28;20156;-73
2022/08/23 04:11:29;;;;;;;0.50;0.43;;;23.40;57.80;;;;;;6177391;28;20492;-74
2022/08/23 04:14:29;;;;;;;0.40;0.40;;;23.40;57.70;;;;;;6194633;28;20027;-74
2022/08/23 04:17:30;;;;;;;0.82;0.40;;;23.40;57.80;;;;;;6180504;28;20041;-74
2022/08/23 04:20:31;;;;;;;0.57;0.47;;;23.40;57.80;;;;;;6170597;28;20041;-74
2022/08/23 04:23:31;;;;;;;0.30;0.30;;;23.40;57.80;;;;;;6192755;28;20432;-74
2022/08/23 04:26:32;;;;;;;0.50;0.50;;;23.40;57.80;;;;;;6193938;28;20019;-74
2022/08/23 04:29:33;;;;;;;0.50;0.40;;;23.40;58.10;;;;;;6196187;28;20376;-74
2022/08/23 04:32:34;;;;;;;0.55;0.35;;;23.40;57.80;;;;;;6183401;28;20061;-74
2022/08/23 04:35:35;;;;;;;0.38;0.38;;;23.40;57.80;;;;;;6171470;28;20027;-74
2022/08/23 04:38:35;;;;;;;0.50;0.50;;;23.40;57.80;;;;;;6190810;28;20626;-74
2022/08/23 04:44:56;;;;;;;0.20;0.20;;;23.40;57.80;;;;;;6172092;28;20039;-75
2022/08/23 04:47:57;;;;;;;0.47;0.47;;;23.40;57.80;;;;;;6183271;28;20609;-74
2022/08/23 04:50:58;;;;;;;0.73;0.40;;;23.40;57.80;;;;;;6194181;28;20085;-74
2022/08/23 04:53:58;;;;;;;0.65;0.40;;;23.40;57.80;;;;;;6172628;28;20516;-74
2022/08/23 04:56:59;;;;;;;0.60;0.40;;;23.40;57.80;;;;;;6173660;28;20035;-74
2022/08/23 05:00:34;;;;;;;1.05;0.50;;;23.40;57.80;;;;;;6179601;28;20501;-75
2022/08/23 05:03:34;;;;;;;3.38;0.40;;;23.40;57.80;;;;;;6189924;28;20053;-75
2022/08/23 05:06:36;;;;;;;0.73;0.52;;;23.40;56.50;;;;;;6190095;28;20026;-75
2022/08/23 05:09:36;;;;;;;1.52;0.90;;;23.50;55.20;;;;;;6192197;28;20038;-74
2022/08/23 05:12:38;;;;;;;1.10;0.88;;;23.50;54.80;;;;;;6179707;28;20046;-74
2022/08/23 05:15:38;;;;;;;5.07;1.10;;;23.70;54.50;;;;;;6169892;28;20099;-75
2022/08/23 05:18:39;;;;;;;3.03;1.42;;;23.80;54.40;;;;;;6202880;28;20046;-75
2022/08/23 05:21:40;;;;;;;4.22;0.98;;;23.80;53.90;;;;;;6190505;28;20034;-75
2022/08/23 05:24:40;;;;;;;2.00;0.90;;;23.90;53.40;;;;;;6189990;28;20034;-74
2022/08/23 05:27:41;;;;;;;3.03;1.10;;;24.00;53.10;;;;;;6189315;28;20402;-74
2022/08/23 05:30:42;;;;;;;0.80;0.70;;;24.10;52.80;;;;;;6174531;28;20031;-74
2022/08/23 05:33:44;;;;;;;1.58;0.85;;;24.20;52.50;;;;;;6196710;28;20034;-75
2022/08/23 05:36:45;;;;;;;1.80;0.70;;;24.20;52.40;;;;;;6178858;28;20461;-74
2022/08/23 05:39:45;;;;;;;3.90;0.90;;;24.20;52.10;;;;;;6176116;28;20029;-75
2022/08/23 05:42:46;;;;;;;1.90;0.98;;;24.30;52.00;;;;;;6181348;28;20035;-74
2022/08/23 05:45:47;;;;;;;2.28;1.10;;;24.30;51.80;;;;;;6172521;28;20038;-75
2022/08/23 05:48:50;;;;;;;2.08;1.00;;;24.30;51.70;;;;;;6183128;28;20105;-74
2022/08/23 05:51:50;;;;;;;1.98;0.80;;;24.30;51.70;;;;;;6178118;28;20097;-74
2022/08/23 05:54:51;;;;;;;0.60;0.60;;;24.30;51.50;;;;;;6187377;28;20046;-74
2022/08/23 05:57:51;;;;;;;1.73;0.80;;;24.30;51.40;;;;;;6193051;28;20030;-75
2022/08/23 06:00:54;;;;;;;1.85;0.70;;;24.30;51.20;;;;;;6183356;28;20038;-75
2022/08/23 06:03:55;;;;;;;2.08;0.90;;;24.30;51.20;;;;;;6187722;28;20428;-74
2022/08/23 06:06:57;;;;;;;1.70;0.70;;;24.40;51.20;;;;;;6177249;28;20034;-74
2022/08/23 06:09:58;;;;;;;1.48;0.80;;;24.40;51.20;;;;;;6195698;28;20027;-75
2022/08/23 06:13:01;;;;;;;2.28;0.82;;;24.40;51.10;;;;;;6195785;28;20449;-74
2022/08/23 06:16:05;;;;;;;1.30;0.70;;;24.40;51.00;;;;;;6174860;28;20027;-74
2022/08/23 06:19:07;;;;;;;0.95;0.70;;;24.40;50.90;;;;;;6185410;28;20038;-75
2022/08/23 06:22:08;;;;;;;1.23;0.75;;;24.40;50.80;;;;;;6178284;28;20045;-73
2022/08/23 06:25:09;;;;;;;1.20;0.60;;;24.40;50.70;;;;;;6184990;28;20061;-74
2022/08/23 06:28:09;;;;;;;0.73;0.60;;;24.40;50.70;;;;;;6192433;28;20519;-74
2022/08/23 06:31:10;;;;;;;1.50;0.70;;;24.40;50.60;;;;;;6205830;28;20063;-75
2022/08/23 06:34:33;;;;;;;1.40;0.88;;;24.40;50.50;;;;;;6195800;28;20503;-74
2022/08/23 06:37:34;;;;;;;0.93;0.65;;;24.40;50.30;;;;;;6188689;28;20057;-75
2022/08/23 06:40:35;;;;;;;1.50;0.60;;;24.40;51.10;;;;;;6192361;28;20293;-74
2022/08/23 06:43:36;;;;;;;1.08;0.60;;;24.40;50.40;;;;;;6181508;28;20045;-75
2022/08/23 06:46:37;;;;;;;1.13;0.73;;;24.40;50.20;;;;;;6198816;28;20050;-75
2022/08/23 06:49:38;;;;;;;1.38;0.68;;;24.40;50.20;;;;;;6187321;28;20084;-75
2022/08/23 06:52:39;;;;;;;1.73;0.80;;;24.40;50.10;;;;;;6177629;28;20025;-75
2022/08/23 06:55:40;;;;;;;0.80;0.68;;;24.40;50.20;;;;;;6197299;28;20072;-75
2022/08/23 06:58:41;;;;;;;0.93;0.80;;;24.40;50.10;;;;;;6196934;28;20022;-75
2022/08/23 07:01:44;;;;;;;1.10;0.50;;;24.40;50.70;;;;;;6173934;28;20043;-75
2022/08/23 07:04:44;;;;;;;1.20;0.82;;;24.40;49.90;;;;;;6192068;28;20041;-74
2022/08/23 07:07:45;;;;;;;1.27;0.60;;;24.40;49.90;;;;;;6197925;28;20105;-74
2022/08/23 07:10:46;;;;;;;0.73;0.52;;;24.50;49.90;;;;;;6180880;28;20058;-75
2022/08/23 07:13:47;;;;;;;1.38;0.80;;;24.50;49.80;;;;;;6182638;28;20085;-75
2022/08/23 07:16:51;;;;;;;0.63;0.57;;;24.50;49.80;;;;;;6173878;28;20035;-75
2022/08/23 07:19:52;;;;;;;0.80;0.55;;;24.40;49.70;;;;;;6198324;28;20023;-75
2022/08/23 07:22:52;;;;;;;0.47;0.47;;;24.50;49.70;;;;;;6183706;28;20042;-74
2022/08/23 07:25:53;;;;;;;0.98;0.60;;;24.50;50.40;;;;;;6180313;28;20034;-77
2022/08/23 07:28:54;;;;;;;1.02;0.52;;;24.50;49.50;;;;;;6195717;28;20023;-75
2022/08/23 07:31:55;;;;;;;0.85;0.52;;;24.50;49.60;;;;;;6173742;28;20062;-75
2022/08/23 07:34:56;;;;;;;1.27;0.80;;;24.40;49.40;;;;;;6180859;28;20050;-75
2022/08/23 07:37:57;;;;;;;0.80;0.57;;;24.40;49.40;;;;;;6173212;28;20034;-75
2022/08/23 07:40:57;;;;;;;1.08;0.77;;;24.50;49.50;;;;;;6180631;28;20038;-74
2022/08/23 07:44:03;;;;;;;1.10;0.60;;;24.50;49.50;;;;;;6184976;28;20035;-75
2022/08/23 07:47:03;;;;;;;0.93;0.60;;;24.50;49.40;;;;;;6175151;28;20081;-75
2022/08/23 07:50:05;;;;;;;1.25;0.77;;;24.50;49.20;;;;;;6177817;28;20066;-74
2022/08/23 07:53:07;;;;;;;0.57;0.45;;;24.50;49.20;;;;;;6194164;28;20149;-74
2022/08/23 07:56:10;;;;;;;0.88;0.50;;;24.50;49.20;;;;;;6196222;28;20157;-75
2022/08/23 07:59:10;;;;;;;0.45;0.40;;;24.50;49.20;;;;;;6191823;28;20058;-75
2022/08/23 08:02:11;;;;;;;0.77;0.50;;;24.50;49.10;;;;;;6192138;28;20564;-74
2022/08/23 08:05:12;;;;;;;0.95;0.60;;;24.50;49.00;;;;;;6191363;28;20034;-74
2022/08/23 08:08:12;;;;;;;0.70;0.60;;;24.50;49.10;;;;;;6175568;28;20031;-74
2022/08/23 08:11:19;;;;;;;0.55;0.50;;;24.50;49.10;;;;;;6180294;28;20034;-75
2022/08/23 08:14:20;;;;;;;0.50;0.50;;;24.50;49.00;;;;;;6171846;28;20023;-76
2022/08/23 08:17:20;;;;;;;0.75;0.50;;;24.50;49.00;;;;;;6191801;28;20057;-75
2022/08/23 08:20:21;;;;;;;1.20;0.65;;;24.50;48.90;;;;;;6191947;28;20046;-75
2022/08/23 08:23:22;;;;;;;0.68;0.60;;;24.50;48.80;;;;;;6171889;28;20128;-75
2022/08/23 08:26:23;;;;;;;0.40;0.30;;;24.60;49.00;;;;;;6176624;28;20035;-75
2022/08/23 08:29:24;;;;;;;0.90;0.57;;;24.60;48.80;;;;;;6162031;28;20472;-75
2022/08/23 08:32:25;;;;;;;1.50;0.73;;;24.60;48.80;;;;;;6191263;28;20053;-75
2022/08/23 08:35:26;;;;;;;0.47;0.38;;;24.60;48.80;;;;;;6189417;28;20018;-74
2022/08/23 08:38:26;;;;;;;0.55;0.50;;;24.50;48.70;;;;;;6196664;28;20339;-76
2022/08/23 08:41:42;;;;;;;0.50;0.50;;;24.60;48.70;;;;;;6188820;28;20507;-75
2022/08/23 08:44:54;;;;;;;0.30;0.30;;;24.60;48.70;;;;;;6195297;28;20022;-75
2022/08/23 08:48:09;;;;;;;1.35;0.47;;;24.60;48.70;;;;;;6175002;28;20018;-74
2022/08/23 08:51:33;;;;;;;1.00;0.50;;;24.60;48.60;;;;;;6177451;28;20031;-75
2022/08/23 08:54:36;;;;;;;1.58;0.60;;;24.60;48.60;;;;;;6179549;28;20045;-75
2022/08/23 08:57:40;;;;;;;0.40;0.40;;;24.60;48.70;;;;;;6178901;28;20031;-75
2022/08/23 09:00:40;;;;;;;0.50;0.50;;;24.60;48.70;;;;;;6191154;28;20057;-74
2022/08/23 09:03:41;;;;;;;1.35;0.68;;;24.60;48.70;;;;;;6170630;28;20035;-75
2022/08/23 09:07:10;;;;;;;1.13;0.40;;;24.60;48.60;;;;;;6177796;28;20022;-74
2022/08/23 09:10:29;;;;;;;1.98;0.40;;;24.60;48.50;;;;;;6187643;28;20521;-74
2022/08/23 09:13:42;;;;;;;0.70;0.50;;;24.50;48.50;;;;;;6170564;28;20035;-75
2022/08/23 09:17:04;;;;;;;0.50;0.40;;;24.50;48.50;;;;;;6177281;28;20045;-75
2022/08/23 09:20:06;;;;;;;1.17;0.40;;;24.60;48.60;;;;;;6170215;28;20050;-74
2022/08/23 09:23:18;;;;;;;1.60;0.68;;;24.60;48.50;;;;;;6189523;28;20038;-74
2022/08/23 09:26:23;;;;;;;1.20;0.60;;;24.60;48.50;;;;;;6189289;28;20030;-74
2022/08/23 09:29:24;;;;;;;0.70;0.50;;;24.60;48.50;;;;;;6169934;28;20027;-75
2022/08/23 09:32:32;;;;;;;0.95;0.60;;;24.50;48.40;;;;;;6175286;28;20047;-74
2022/08/23 09:35:33;;;;;;;1.25;0.50;;;24.60;48.50;;;;;;6173640;28;20046;-74
2022/08/23 09:38:34;;;;;;;1.85;0.57;;;24.60;48.50;;;;;;6144526;29;20039;-74
2022/08/23 09:41:42;;;;;;;0.98;0.60;;;24.60;48.40;;;;;;6143021;28;20095;-75
2022/08/23 09:44:43;;;;;;;1.17;0.80;;;24.60;48.50;;;;;;6143941;29;20118;-75
2022/08/23 09:47:44;;;;;;;1.48;0.90;;;24.60;48.40;;;;;;6144578;28;20126;-75
2022/08/23 09:50:53;;;;;;;1.50;0.80;;;24.60;48.40;;;;;;6143647;29;20059;-75
2022/08/23 09:54:18;;;;;;;1.23;0.70;;;24.60;48.30;;;;;;6139214;28;20047;-75
2022/08/23 09:57:25;;;;;;;1.73;1.00;;;24.60;48.50;;;;;;6141371;28;20051;-74
2022/08/23 10:00:39;;;;;;;2.33;1.60;;;24.60;48.50;;;;;;6140729;29;20055;-74
2022/08/23 10:03:41;;;;;;;1.67;0.70;;;24.60;48.60;;;;;;6142795;28;20059;-74
2022/08/23 10:06:44;;;;;;;1.80;0.85;;;24.60;48.50;;;;;;6143714;28;20027;-74
2022/08/23 10:09:48;;;;;;;2.60;0.90;;;24.60;48.50;;;;;;6161267;28;20047;-74
2022/08/23 10:12:51;;;;;;;2.05;1.13;;;24.60;48.60;;;;;;6176427;28;20034;-74
2022/08/23 10:16:29;;;;;;;2.78;0.95;;;24.60;48.60;;;;;;6175352;28;20549;-74
2022/08/23 10:19:58;;;;;;;1.60;1.10;;;24.60;48.50;;;;;;6174887;28;20689;-74
2022/08/23 10:23:34;;;;;;;1.55;0.90;;;24.60;48.60;;;;;;6183642;28;20483;-74
2022/08/23 10:26:43;;;;;;;2.75;1.20;;;24.60;48.50;;;;;;6195688;28;20029;-74
2022/08/23 10:29:47;;;;;;;2.67;0.98;;;24.60;48.60;;;;;;6196856;28;20030;-75
2022/08/23 10:33:13;;;;;;;2.17;1.10;;;24.60;48.50;;;;;;6194264;28;20046;-75
2022/08/23 10:36:16;;;;;;;;;;;24.60;48.50;;;;;;6175208;28;20039;-74
2022/08/23 10:39:29;;;;;;;3.78;0.93;;;24.60;48.40;;;;;;6192178;28;20318;-74
2022/08/23 10:43:08;;;;;;;2.05;1.00;;;24.60;48.30;;;;;;6192880;28;20046;-75
2022/08/23 10:46:10;;;;;;;3.03;1.00;;;24.60;48.20;;;;;;6203658;28;20717;-75
2022/08/23 10:49:13;;;;;;;2.05;0.88;;;24.60;48.30;;;;;;6193481;28;20072;-74
2022/08/23 10:52:19;;;;;;;1.23;0.90;;;24.60;48.20;;;;;;6194144;28;20038;-74
2022/08/23 10:56:01;;;;;;;1.95;1.00;;;24.60;48.10;;;;;;6190524;28;20110;-74
2022/08/23 10:59:19;;;;;;;2.22;1.00;;;24.60;48.10;;;;;;6189810;28;20416;-74
2022/08/23 11:02:23;;;;;;;2.08;0.95;;;24.60;48.10;;;;;;6173826;28;20053;-74
2022/08/23 11:05:29;;;;;;;1.67;1.07;;;24.60;48.00;;;;;;6198761;28;20028;-74
2022/08/23 11:08:42;;;;;;;1.33;0.80;;;24.60;47.90;;;;;;6193346;28;20033;-74
2022/08/23 11:12:01;;;;;;;1.38;0.90;;;24.60;47.90;;;;;;6197527;28;20080;-74
2022/08/23 11:15:09;;;;;;;2.35;0.90;;;24.60;47.80;;;;;;6192316;28;20023;-75
2022/08/23 11:18:32;;;;;;;0.80;0.70;;;24.60;47.90;;;;;;6192934;28;20088;-74
2022/08/23 11:21:35;;;;;;;1.70;0.90;;;24.60;47.90;;;;;;6197187;28;20026;-75
2022/08/23 11:24:51;;;;;;;2.13;1.00;;;24.60;47.80;;;;;;6192198;28;20428;-75
2022/08/23 11:28:23;;;;;;;1.00;0.73;;;24.60;47.80;;;;;;6185024;28;20045;-75
2022/08/23 11:31:33;;;;;;;1.55;0.90;;;24.60;47.70;;;;;;6173037;28;20164;-75
2022/08/23 11:34:59;;;;;;;1.75;0.82;;;24.60;47.70;;;;;;6187472;28;20653;-75
2022/08/23 11:38:02;;;;;;;1.10;0.63;;;24.60;47.70;;;;;;6197686;28;20031;-74
2022/08/23 11:41:22;;;;;;;2.00;1.13;;;24.60;47.60;;;;;;6196411;28;20034;-74
2022/08/23 11:44:35;;;;;;;0.95;0.65;;;24.60;47.50;;;;;;6187454;28;20562;-74
2022/08/23 11:47:42;;;;;;;0.93;0.60;;;24.60;47.50;;;;;;6175347;28;20061;-74
2022/08/23 11:50:49;;;;;;;0.77;0.60;;;24.60;47.50;;;;;;6192403;28;20034;-74
2022/08/23 11:53:59;;;;;;;1.42;1.02;;;24.60;47.50;;;;;;6210718;28;20567;-74
2022/08/23 11:57:27;;;;;;;1.05;0.70;;;24.60;47.50;;;;;;6197447;28;20104;-75
2022/08/23 12:00:53;;;;;;;0.90;0.75;;;24.60;47.50;;;;;;6189100;28;20101;-74
2022/08/23 12:03:58;;;;;;;2.03;0.80;;;24.60;47.40;;;;;;6195557;28;20034;-74
2022/08/23 12:07:06;;;;;;;0.95;0.73;;;24.60;47.40;;;;;;6197933;28;20514;-74
2022/08/23 12:10:07;;;;;;;1.00;0.70;;;24.60;47.40;;;;;;6182213;28;20034;-74
2022/08/23 12:13:20;;;;;;;0.95;0.65;;;24.60;47.30;;;;;;6175289;28;20030;-74
2022/08/23 12:16:22;;;;;;;0.70;0.52;;;24.60;47.30;;;;;;6173715;28;20035;-75
2022/08/23 12:20:07;;;;;;;0.73;0.57;;;24.60;47.30;;;;;;6174017;28;20042;-75
2022/08/23 12:23:17;;;;;;;0.70;0.70;;;24.60;47.30;;;;;;6169983;28;20042;-74
2022/08/23 12:26:31;;;;;;;0.52;0.52;;;24.60;47.30;;;;;;6191668;28;20093;-75
2022/08/23 12:29:53;;;;;;;0.80;0.60;;;24.60;47.20;;;;;;6172854;28;20026;-75
2022/08/23 12:33:08;;;;;;;0.65;0.43;;;24.60;47.10;;;;;;6171187;28;20149;-73
2022/08/23 12:36:30;;;;;;;1.42;0.80;;;24.60;47.10;;;;;;6172462;28;20030;-74
2022/08/23 12:39:35;;;;;;;1.27;0.50;;;24.60;47.10;;;;;;6171732;28;20027;-74
2022/08/23 12:42:38;;;;;;;0.60;0.60;;;24.60;47.00;;;;;;6171560;28;20031;-75
2022/08/23 12:45:48;;;;;;;0.98;0.52;;;24.60;47.10;;;;;;6184647;28;20026;-74
2022/08/23 12:48:49;;;;;;;1.25;0.70;;;24.60;47.00;;;;;;6196543;28;20050;-74
2022/08/23 12:51:52;;;;;;;0.73;0.60;;;24.60;47.00;;;;;;6176998;28;20035;-74
2022/08/23 12:54:56;;;;;;;0.40;0.40;;;24.60;47.00;;;;;;6178141;28;20473;-74
2022/08/23 12:57:58;;;;;;;0.93;0.70;;;24.60;47.00;;;;;;6171042;28;20026;-74
2022/08/23 13:01:16;;;;;;;0.55;0.50;;;24.60;47.00;;;;;;6194275;28;20034;-75
2022/08/23 13:04:17;;;;;;;4.85;0.60;;;24.60;47.00;;;;;;6195349;28;20435;-75
2022/08/23 13:07:22;;;;;;;0.52;0.45;;;24.60;47.00;;;;;;6175016;28;20022;-75
2022/08/23 13:10:23;;;;;;;0.50;0.50;;;24.60;47.00;;;;;;6191046;28;20433;-74
2022/08/23 13:13:26;;;;;;;1.05;0.70;;;24.60;47.00;;;;;;6194915;28;20066;-74
2022/08/23 13:16:35;;;;;;;0.80;0.50;;;24.60;47.00;;;;;;6188601;28;20481;-72
2022/08/23 13:19:36;;;;;;;0.93;0.60;;;24.60;46.90;;;;;;6168733;28;20023;-74
2022/08/23 13:22:53;;;;;;;0.82;0.60;;;24.60;46.90;;;;;;6181319;28;20440;-74
2022/08/23 13:25:54;;;;;;;0.50;0.50;;;24.60;46.80;;;;;;6181334;28;20119;-73
2022/08/23 13:29:05;;;;;;;0.80;0.65;;;24.60;46.90;;;;;;6168683;28;20474;-74
2022/08/23 13:32:38;;;;;;;0.57;0.50;;;24.60;46.90;;;;;;6186339;28;20046;-75
2022/08/23 13:35:47;;;;;;;0.55;0.47;;;24.60;46.80;;;;;;6192880;28;20022;-75
2022/08/23 13:38:48;;;;;;;0.85;0.50;;;24.60;46.80;;;;;;6197404;28;20476;-74
2022/08/23 13:41:49;;;;;;;0.63;0.50;;;24.60;46.70;;;;;;6179905;28;20485;-74
2022/08/23 13:44:50;;;;;;;0.98;0.60;;;24.60;47.50;;;;;;6171041;28;20073;-75
2022/08/23 13:48:00;;;;;;;0.50;0.50;;;24.60;46.80;;;;;;6176310;28;20030;-75
2022/08/23 13:51:25;;;;;;;0.80;0.50;;;24.60;46.80;;;;;;6178728;28;20030;-74
2022/08/23 13:54:28;;;;;;;0.60;0.40;;;24.60;46.70;;;;;;6200472;28;20030;-74
2022/08/23 13:57:31;;;;;;;2.78;0.43;;;24.70;46.70;;;;;;6183598;28;20401;-74
2022/08/23 14:00:31;;;;;;;0.80;0.50;;;24.60;46.60;;;;;;6175929;28;20034;-74
2022/08/23 14:03:32;;;;;;;0.52;0.50;;;24.70;46.80;;;;;;6198651;28;20034;-74
2022/08/23 14:06:32;;;;;;;0.52;0.40;;;24.60;46.70;;;;;;6190961;28;20058;-75
2022/08/23 14:09:34;;;;;;;0.57;0.50;;;24.70;46.70;;;;;;6178537;28;20023;-76
2022/08/23 14:12:35;;;;;;;0.60;0.50;;;24.70;46.70;;;;;;6189987;28;20665;-74
2022/08/23 14:15:39;;;;;;;0.38;0.38;;;24.70;46.60;;;;;;6199739;28;20073;-75
2022/08/23 14:18:39;;;;;;;0.60;0.50;;;24.70;46.60;;;;;;6175769;28;20074;-74
2022/08/23 14:21:40;;;;;;;0.65;0.50;;;24.70;46.60;;;;;;6182275;28;20014;-76
2022/08/23 14:24:41;;;;;;;1.60;0.40;;;24.70;46.60;;;;;;6213739;28;20026;-74
2022/08/23 14:27:45;;;;;;;0.80;0.50;;;24.70;46.50;;;;;;6181852;28;20046;-72
2022/08/23 14:30:46;;;;;;;1.05;0.50;;;24.70;46.50;;;;;;6170817;28;20066;-74
2022/08/23 14:33:47;;;;;;;0.47;0.43;;;24.70;46.60;;;;;;6174747;28;20485;-74
2022/08/23 14:36:50;;;;;;;0.80;0.50;;;24.70;46.50;;;;;;6180800;28;20080;-74
2022/08/23 14:39:51;;;;;;;1.02;0.45;;;24.70;46.50;;;;;;6198376;28;20085;-74
2022/08/23 14:42:52;;;;;;;0.40;0.40;;;24.60;46.50;;;;;;6190123;28;20035;-74
2022/08/23 14:45:54;;;;;;;0.70;0.50;;;24.70;46.50;;;;;;6171737;28;20026;-74
2022/08/23 14:48:54;;;;;;;0.85;0.47;;;24.70;46.50;;;;;;6195392;28;20033;-74
2022/08/23 14:51:55;;;;;;;0.55;0.50;;;24.70;46.50;;;;;;6197726;28;20054;-74
2022/08/23 14:54:56;;;;;;;0.80;0.45;;;24.60;46.40;;;;;;6196373;28;20034;-74
2022/08/23 14:57:57;;;;;;;1.65;0.50;;;24.70;46.50;;;;;;6196178;28;20031;-74
2022/08/23 15:00:58;;;;;;;0.40;0.40;;;24.70;46.50;;;;;;6197764;28;20019;-74
2022/08/23 15:04:00;;;;;;;0.75;0.50;;;24.70;46.40;;;;;;6199504;28;20373;-74
2022/08/23 15:07:03;;;;;;;0.57;0.50;;;24.70;46.40;;;;;;6194594;28;20118;-74
2022/08/23 15:10:05;;;;;;;3.60;0.38;;;24.70;46.40;;;;;;6197910;28;20537;-74
2022/08/23 15:13:06;;;;;;;0.50;0.40;;;24.70;46.50;;;;;;6197145;28;20022;-74
2022/08/23 15:16:09;;;;;;;1.63;0.52;;;24.70;46.40;;;;;;6197214;28;20027;-74
2022/08/23 15:19:10;;;;;;;0.35;0.30;;;24.70;46.50;;;;;;6197746;28;20027;-74
2022/08/23 15:22:10;;;;;;;0.55;0.32;;;24.70;46.40;;;;;;6196284;28;20610;-74
2022/08/23 15:25:13;;;;;;;3.03;0.50;;;24.70;46.40;;;;;;6191680;28;20053;-75
2022/08/23 15:28:16;;;;;;;1.73;0.50;;;24.70;46.40;;;;;;6178282;28;20019;-75
2022/08/23 15:31:18;;;;;;;1.17;0.40;;;24.70;46.30;;;;;;6183616;28;20053;-75
2022/08/23 15:34:19;;;;;;;3.20;0.40;;;24.70;46.30;;;;;;6165557;28;20480;-73
2022/08/23 15:37:20;;;;;;;2.10;0.50;;;24.70;46.30;;;;;;6169744;28;20417;-73
2022/08/23 15:40:22;;;;;;;0.38;0.30;;;24.70;46.40;;;;;;6194572;28;20042;-74
2022/08/23 15:43:24;;;;;;;0.40;0.38;;;24.70;46.20;;;;;;6196828;28;20106;-75
2022/08/23 15:46:24;;;;;;;0.65;0.40;;;24.70;46.30;;;;;;6185492;28;20082;-75
2022/08/23 15:49:27;;;;;;;1.30;0.52;;;24.70;46.20;;;;;;6191182;28;20030;-75
2022/08/23 15:52:27;;;;;;;0.60;0.38;;;24.70;46.20;;;;;;6196600;28;20101;-75
2022/08/23 15:55:30;;;;;;;0.55;0.40;;;24.60;46.10;;;;;;6189063;28;20523;-75
2022/08/23 15:58:31;;;;;;;0.50;0.40;;;24.70;46.20;;;;;;6197496;28;20023;-75
2022/08/23 16:01:32;;;;;;;0.22;0.22;;;24.70;46.20;;;;;;6197912;28;20080;-75
2022/08/23 16:04:33;;;;;;;0.40;0.40;;;24.70;46.10;;;;;;6180203;28;20034;-74
2022/08/23 16:07:34;;;;;;;0.77;0.50;;;24.70;46.20;;;;;;6173174;28;20394;-75
2022/08/23 16:10:34;;;;;;;0.77;0.40;;;24.60;46.10;;;;;;6175478;28;20405;-75
2022/08/23 16:13:39;;;;;;;0.70;0.57;;;24.70;46.20;;;;;;6181181;28;20018;-75